Time;durP1;ratioP1;P1;durP2;ratioP2;P2;SDS_P1;SDS_P2;PMS_P1;PMS_P2;Temp;Humidity;BMP_temperature;BMP_pressure;BME280_temperature;BME280_humidity;BME280_pressure;Samples;Min_cycle;Max_cycle;Signal;HPM_P1;HPM_P2
2021/09/11 00:00:09;;;;;;;5.47;4.80;;;22.70;99.90;;;;;;5005478;28;20953;-78
2021/09/11 00:02:38;;;;;;;6.10;4.90;;;22.80;99.90;;;;;;5005472;28;20468;-79
2021/09/11 00:05:07;;;;;;;5.87;5.37;;;22.70;99.90;;;;;;4999321;28;20457;-78
2021/09/11 00:07:36;;;;;;;5.60;5.10;;;22.70;99.90;;;;;;5009852;28;20458;-78
2021/09/11 00:10:04;;;;;;;5.40;4.70;;;22.80;99.90;;;;;;5006546;28;20468;-77
2021/09/11 00:12:32;;;;;;;6.37;5.77;;;22.70;99.90;;;;;;5007825;28;20481;-77
2021/09/11 00:15:00;;;;;;;4.93;4.60;;;22.70;99.90;;;;;;5009683;28;20457;-79
2021/09/11 00:17:29;;;;;;;5.93;5.40;;;22.60;99.90;;;;;;5008794;28;20457;-78
2021/09/11 00:19:58;;;;;;;5.10;4.70;;;22.60;99.90;;;;;;5007720;28;20492;-78
2021/09/11 00:22:26;;;;;;;5.13;4.70;;;22.40;99.90;;;;;;5008683;28;21402;-78
2021/09/11 00:24:54;;;;;;;4.83;4.53;;;22.30;99.90;;;;;;5010476;28;20519;-77
2021/09/11 00:27:22;;;;;;;4.20;3.80;;;22.40;99.90;;;;;;5008024;28;20457;-78
2021/09/11 00:29:51;;;;;;;4.40;4.03;;;22.40;99.90;;;;;;5006485;28;20461;-76
2021/09/11 00:32:19;;;;;;;4.07;3.67;;;22.40;99.90;;;;;;5007211;28;20476;-78
2021/09/11 00:34:47;;;;;;;5.03;4.60;;;22.30;99.90;;;;;;5008658;28;20539;-78
2021/09/11 00:37:16;;;;;;;4.57;4.20;;;22.40;99.90;;;;;;4999088;28;20578;-78
2021/09/11 00:39:45;;;;;;;6.60;4.60;;;22.40;99.90;;;;;;5007462;28;20881;-79
2021/09/11 00:42:13;;;;;;;4.27;3.87;;;22.40;99.90;;;;;;5004897;28;20478;-78
2021/09/11 00:44:41;;;;;;;4.37;4.07;;;22.30;99.90;;;;;;5007020;28;21088;-78
2021/09/11 00:47:09;;;;;;;4.70;4.30;;;22.20;99.90;;;;;;5004842;28;20455;-78
2021/09/11 00:49:37;;;;;;;4.50;4.10;;;22.20;99.90;;;;;;5008409;28;20452;-78
2021/09/11 00:52:06;;;;;;;4.00;3.70;;;22.20;99.90;;;;;;5007227;28;20535;-75
2021/09/11 00:54:35;;;;;;;4.93;4.53;;;22.20;99.90;;;;;;4991947;28;21060;-78
2021/09/11 00:57:05;;;;;;;4.10;3.80;;;22.20;99.90;;;;;;5008276;28;20453;-77
2021/09/11 00:59:33;;;;;;;5.60;4.40;;;22.20;99.90;;;;;;5008184;28;20516;-79
2021/09/11 01:02:01;;;;;;;4.53;4.13;;;22.20;99.90;;;;;;5002761;28;20509;-77
2021/09/11 01:04:29;;;;;;;4.97;4.57;;;22.10;99.90;;;;;;5007436;28;21111;-77
2021/09/11 01:06:59;;;;;;;5.10;4.67;;;21.90;99.90;;;;;;5008165;28;20468;-78
2021/09/11 01:09:27;;;;;;;4.33;4.03;;;22.00;99.90;;;;;;5006969;28;20923;-77
2021/09/11 01:11:57;;;;;;;5.20;4.03;;;21.90;99.90;;;;;;5003366;28;21012;-77
2021/09/11 01:14:25;;;;;;;4.67;4.00;;;22.00;99.90;;;;;;5008449;28;20457;-78
2021/09/11 01:16:53;;;;;;;4.70;4.30;;;22.00;99.90;;;;;;5007043;28;20445;-78
2021/09/11 01:19:21;;;;;;;4.30;3.90;;;22.00;99.90;;;;;;5005757;28;20838;-77
2021/09/11 01:21:49;;;;;;;4.67;4.10;;;22.10;99.90;;;;;;5005275;28;20485;-77
2021/09/11 01:24:18;;;;;;;4.43;4.03;;;22.00;99.90;;;;;;5008188;28;20937;-77
2021/09/11 01:26:50;;;;;;;4.80;4.43;;;22.00;99.90;;;;;;5008451;28;20441;-78
2021/09/11 01:29:18;;;;;;;4.73;4.30;;;22.00;99.90;;;;;;5006437;28;20464;-77
2021/09/11 01:31:46;;;;;;;4.13;3.83;;;22.00;99.90;;;;;;5005903;28;20840;-77
2021/09/11 01:34:15;;;;;;;4.00;3.70;;;22.00;99.90;;;;;;5007565;28;20551;-76
2021/09/11 01:36:43;;;;;;;4.40;3.83;;;21.90;99.90;;;;;;5002973;28;20511;-78
2021/09/11 01:39:12;;;;;;;4.80;4.37;;;22.00;99.90;;;;;;5006953;28;20477;-77
2021/09/11 01:41:41;;;;;;;4.47;4.07;;;21.90;99.90;;;;;;5007517;28;20488;-77
2021/09/11 01:44:09;;;;;;;5.40;4.90;;;21.90;99.90;;;;;;4998790;28;21106;-75
2021/09/11 01:46:37;;;;;;;4.43;4.03;;;21.80;99.90;;;;;;5003137;28;20457;-78
2021/09/11 01:49:05;;;;;;;5.67;5.17;;;21.80;99.90;;;;;;5005842;28;20525;-78
2021/09/11 01:51:33;;;;;;;5.23;4.83;;;21.80;99.90;;;;;;5007189;28;20484;-78
2021/09/11 01:54:01;;;;;;;5.47;4.97;;;21.80;99.90;;;;;;5001288;28;20509;-78
2021/09/11 01:56:29;;;;;;;4.87;4.47;;;21.80;99.90;;;;;;4998479;28;20465;-78
2021/09/11 01:58:59;;;;;;;4.60;4.20;;;21.80;99.90;;;;;;5004455;28;20484;-74
2021/09/11 02:01:27;;;;;;;6.10;5.50;;;21.70;99.90;;;;;;4998453;28;20465;-78
2021/09/11 02:03:55;;;;;;;4.20;3.90;;;21.60;1.00;;;;;;5007124;28;20457;-77
2021/09/11 02:06:24;;;;;;;4.80;4.40;;;21.70;1.00;;;;;;5009061;28;20467;-76
2021/09/11 02:08:52;;;;;;;4.77;4.07;;;21.80;1.00;;;;;;5006386;28;20453;-78
2021/09/11 02:11:20;;;;;;;5.10;4.70;;;21.80;1.00;;;;;;5008497;28;20972;-75
2021/09/11 02:13:48;;;;;;;4.93;4.50;;;21.80;99.90;;;;;;5003172;28;20507;-78
2021/09/11 02:16:17;;;;;;;5.17;3.90;;;21.70;1.00;;;;;;5008095;28;20467;-77
2021/09/11 02:18:45;;;;;;;3.93;3.63;;;21.70;1.00;;;;;;5006664;28;20484;-78
2021/09/11 02:21:14;;;;;;;4.10;3.80;;;21.80;1.00;;;;;;5006444;28;20477;-79
2021/09/11 02:23:42;;;;;;;4.00;3.70;;;21.80;1.00;;;;;;5006062;28;20469;-79
2021/09/11 02:26:10;;;;;;;3.70;3.37;;;21.80;1.00;;;;;;5006209;28;20906;-77
2021/09/11 02:28:39;;;;;;;4.77;4.00;;;21.80;1.00;;;;;;5005884;28;20460;-76
2021/09/11 02:31:07;;;;;;;3.70;3.40;;;21.70;1.00;;;;;;5004741;28;20488;-75
2021/09/11 02:33:37;;;;;;;3.63;3.33;;;21.60;1.00;;;;;;5006875;28;20468;-78
2021/09/11 02:36:05;;;;;;;3.70;3.40;;;21.70;1.00;;;;;;5008549;28;20457;-79
2021/09/11 02:38:33;;;;;;;3.50;3.20;;;21.70;1.00;;;;;;5010836;28;20507;-79
2021/09/11 02:41:02;;;;;;;4.13;3.73;;;21.70;1.00;;;;;;5008765;28;20484;-78
2021/09/11 02:43:30;;;;;;;3.67;3.40;;;21.70;1.00;;;;;;5006860;28;21091;-79
2021/09/11 02:45:58;;;;;;;3.60;3.30;;;21.70;1.00;;;;;;5009925;28;20902;-78
2021/09/11 02:48:27;;;;;;;4.27;3.87;;;21.70;1.00;;;;;;5011705;28;20456;-78
2021/09/11 02:50:56;;;;;;;2.97;2.77;;;21.70;1.00;;;;;;5010390;28;20461;-77
2021/09/11 02:53:24;;;;;;;3.80;3.50;;;21.60;1.00;;;;;;5011208;28;20479;-79
2021/09/11 02:55:53;;;;;;;3.90;3.60;;;21.60;1.00;;;;;;5010692;28;20446;-79
2021/09/11 02:58:22;;;;;;;2.90;2.70;;;21.50;1.00;;;;;;5011138;28;20460;-78
2021/09/11 03:00:53;;;;;;;3.53;3.23;;;21.50;1.00;;;;;;5003120;28;20475;-78
2021/09/11 03:03:22;;;;;;;2.90;2.70;;;21.60;1.00;;;;;;5011273;28;20472;-78
2021/09/11 03:05:50;;;;;;;3.33;3.03;;;21.60;1.00;;;;;;5011179;28;21065;-75
2021/09/11 03:08:20;;;;;;;6.53;3.37;;;21.50;1.00;;;;;;5010114;28;20630;-77
2021/09/11 03:10:48;;;;;;;4.03;3.07;;;21.60;1.00;;;;;;5008529;28;20442;-77
2021/09/11 03:13:18;;;;;;;2.33;2.10;;;21.70;1.00;;;;;;5009846;28;20475;-77
2021/09/11 03:15:46;;;;;;;3.10;2.90;;;21.80;1.00;;;;;;5007362;28;20468;-77
2021/09/11 03:18:15;;;;;;;3.43;3.13;;;21.80;1.00;;;;;;5007676;28;20461;-75
2021/09/11 03:20:46;;;;;;;4.07;3.77;;;21.80;1.00;;;;;;5006322;28;20571;-78
2021/09/11 03:23:15;;;;;;;2.77;2.53;;;21.70;1.00;;;;;;5007532;28;20481;-75
2021/09/11 03:25:45;;;;;;;2.97;2.70;;;21.70;1.00;;;;;;5007113;28;20468;-77
2021/09/11 03:28:13;;;;;;;2.43;2.23;;;21.70;11.60;;;;;;5010753;28;20785;-75
2021/09/11 03:30:41;;;;;;;2.63;2.50;;;21.70;1.00;;;;;;5006052;28;20514;-75
2021/09/11 03:33:09;;;;;;;2.60;2.40;;;21.80;1.00;;;;;;5008338;28;20477;-76
2021/09/11 03:35:37;;;;;;;2.77;2.57;;;21.80;1.00;;;;;;5006559;28;20468;-76
2021/09/11 03:38:05;;;;;;;3.00;2.73;;;21.90;1.00;;;;;;5006262;28;20508;-77
2021/09/11 03:40:33;;;;;;;3.20;2.70;;;21.80;1.00;;;;;;5009064;28;20867;-76
2021/09/11 03:43:03;;;;;;;3.57;3.27;;;21.80;21.20;;;;;;5002579;28;20468;-78
2021/09/11 03:45:31;;;;;;;3.00;2.80;;;21.80;94.30;;;;;;5006393;28;20532;-75
2021/09/11 03:47:59;;;;;;;2.83;2.50;;;21.80;99.90;;;;;;5009096;28;20500;-76
2021/09/11 03:50:28;;;;;;;2.33;2.17;;;21.70;99.90;;;;;;5008029;28;20511;-75
2021/09/11 03:52:56;;;;;;;3.73;3.43;;;21.70;99.90;;;;;;5009227;28;20488;-75
2021/09/11 03:55:24;;;;;;;3.07;2.80;;;21.80;99.90;;;;;;5007957;28;21007;-75
2021/09/11 03:57:52;;;;;;;2.80;2.57;;;21.70;99.90;;;;;;5008306;28;20835;-76
2021/09/11 04:00:21;;;;;;;2.83;2.63;;;21.50;99.90;;;;;;5006408;28;20497;-75
2021/09/11 04:02:50;;;;;;;2.80;2.53;;;21.40;99.90;;;;;;5007465;28;20487;-74
2021/09/11 04:05:20;;;;;;;3.20;2.90;;;21.30;99.90;;;;;;5007702;28;20823;-77
2021/09/11 04:07:48;;;;;;;3.03;2.73;;;21.20;1.00;;;;;;5010622;28;20457;-77
2021/09/11 04:10:16;;;;;;;3.50;3.20;;;21.20;1.00;;;;;;5007126;28;20452;-74
2021/09/11 04:12:44;;;;;;;3.40;3.17;;;21.10;1.00;;;;;;5008255;28;20461;-75
2021/09/11 04:15:13;;;;;;;2.97;2.77;;;21.10;1.00;;;;;;5008115;28;20442;-76
2021/09/11 04:17:42;;;;;;;3.17;2.87;;;21.10;1.00;;;;;;5010296;28;20453;-75
2021/09/11 04:20:12;;;;;;;3.57;3.27;;;21.10;1.00;;;;;;5022080;28;21088;-73
2021/09/11 04:22:40;;;;;;;2.80;2.53;;;21.10;1.00;;;;;;5006808;28;20503;-75
2021/09/11 04:25:09;;;;;;;3.23;2.57;;;21.00;1.00;;;;;;5006132;28;20448;-77
2021/09/11 04:27:37;;;;;;;3.10;2.80;;;21.00;1.00;;;;;;5007298;28;20456;-77
2021/09/11 04:30:06;;;;;;;3.00;2.80;;;21.10;1.00;;;;;;5006180;28;20882;-76
2021/09/11 04:32:34;;;;;;;2.27;2.17;;;21.10;1.00;;;;;;5008437;28;20530;-76
2021/09/11 04:35:04;;;;;;;3.00;2.80;;;21.00;1.00;;;;;;5006965;28;20522;-75
2021/09/11 04:37:32;;;;;;;2.60;2.40;;;21.00;1.00;;;;;;5008386;28;20451;-75
2021/09/11 04:40:00;;;;;;;2.40;2.20;;;21.00;1.00;;;;;;5005787;28;20461;-75
2021/09/11 04:42:29;;;;;;;2.43;2.30;;;21.10;1.00;;;;;;5007738;28;20495;-75
2021/09/11 04:44:57;;;;;;;2.50;2.30;;;21.20;1.00;;;;;;5007951;28;20465;-75
2021/09/11 04:47:25;;;;;;;2.70;2.50;;;21.20;1.00;;;;;;5007076;28;20468;-75
2021/09/11 04:49:53;;;;;;;2.93;2.23;;;21.10;99.90;;;;;;5007430;28;20442;-75
2021/09/11 04:52:22;;;;;;;2.00;1.90;;;21.20;1.00;;;;;;5007621;28;20472;-75
2021/09/11 04:54:50;;;;;;;2.23;2.03;;;21.20;1.00;;;;;;5006413;28;20795;-75
2021/09/11 04:57:21;;;;;;;2.37;2.17;;;21.20;1.00;;;;;;5008085;28;20515;-77
2021/09/11 04:59:50;;;;;;;2.93;2.73;;;21.10;1.00;;;;;;5007833;28;20448;-75
2021/09/11 05:02:18;;;;;;;2.67;2.47;;;21.00;1.00;;;;;;5003197;28;20524;-75
2021/09/11 05:04:46;;;;;;;2.53;2.33;;;21.00;1.00;;;;;;5007643;28;20451;-78
2021/09/11 05:07:18;;;;;;;2.53;2.33;;;21.00;1.00;;;;;;5007559;28;20452;-76
2021/09/11 05:09:48;;;;;;;2.83;2.20;;;20.90;1.00;;;;;;4999526;28;20495;-75
2021/09/11 05:12:16;;;;;;;2.43;2.23;;;20.80;93.10;;;;;;5004274;28;20458;-74
2021/09/11 05:14:44;;;;;;;2.00;1.80;;;20.90;1.00;;;;;;5006096;28;21247;-76
2021/09/11 05:17:12;;;;;;;2.00;1.90;;;20.80;68.30;;;;;;5002698;28;20465;-75
2021/09/11 05:19:40;;;;;;;1.80;1.70;;;20.90;63.90;;;;;;5006014;28;20527;-76
2021/09/11 05:22:09;;;;;;;2.73;1.90;;;20.90;1.00;;;;;;5008314;28;20487;-75
2021/09/11 05:24:37;;;;;;;1.90;1.80;;;20.90;1.00;;;;;;4996112;28;20523;-75
2021/09/11 05:27:06;;;;;;;1.90;1.80;;;21.00;1.00;;;;;;5006961;28;20968;-75
2021/09/11 05:29:34;;;;;;;2.13;2.00;;;20.90;1.00;;;;;;5006408;28;21041;-77
2021/09/11 05:32:03;;;;;;;1.80;1.70;;;20.90;1.00;;;;;;5006513;28;20508;-75
2021/09/11 05:34:31;;;;;;;2.00;1.80;;;20.90;1.00;;;;;;5005605;28;20464;-75
2021/09/11 05:36:59;;;;;;;1.83;1.73;;;20.80;1.00;;;;;;5004395;28;20869;-77
2021/09/11 05:39:27;;;;;;;1.93;1.57;;;20.90;70.70;;;;;;5004880;28;20461;-77
2021/09/11 05:41:58;;;;;;;1.90;1.70;;;21.10;1.00;;;;;;5006099;28;20502;-78
2021/09/11 05:44:27;;;;;;;2.10;2.00;;;21.10;1.00;;;;;;5005824;28;20460;-79
2021/09/11 05:46:56;;;;;;;2.30;2.10;;;21.10;1.00;;;;;;5005950;28;20880;-78
2021/09/11 05:49:25;;;;;;;1.70;1.60;;;21.00;1.00;;;;;;5003310;28;21000;-75
2021/09/11 05:51:54;;;;;;;1.70;1.60;;;21.00;1.00;;;;;;5004483;28;20501;-79
2021/09/11 05:54:22;;;;;;;2.47;1.70;;;21.00;1.00;;;;;;5002284;28;20884;-79
2021/09/11 05:56:50;;;;;;;1.73;1.63;;;21.10;1.00;;;;;;4995331;28;20457;-77
2021/09/11 05:59:18;;;;;;;1.90;1.80;;;21.20;1.00;;;;;;5004582;28;20460;-79
2021/09/11 06:01:48;;;;;;;1.47;1.37;;;21.20;1.00;;;;;;5002782;28;20547;-78
2021/09/11 06:04:16;;;;;;;2.17;1.50;;;21.30;1.00;;;;;;5005676;28;21045;-78
2021/09/11 06:06:44;;;;;;;2.37;1.80;;;21.30;1.00;;;;;;5007224;28;20953;-78
2021/09/11 06:09:12;;;;;;;1.80;1.60;;;21.20;1.00;;;;;;5006565;28;20459;-77
2021/09/11 06:11:40;;;;;;;1.70;1.60;;;21.20;1.00;;;;;;5005280;28;20477;-77
2021/09/11 06:14:08;;;;;;;2.40;2.13;;;21.20;1.00;;;;;;5007239;28;20462;-77
2021/09/11 06:16:36;;;;;;;1.50;1.40;;;21.00;56.40;;;;;;5004921;28;20452;-78
2021/09/11 06:19:06;;;;;;;1.60;1.50;;;21.00;99.90;;;;;;5006006;28;20459;-78
2021/09/11 06:21:34;;;;;;;1.97;1.60;;;21.00;99.90;;;;;;5006437;28;20898;-76
2021/09/11 06:24:02;;;;;;;1.70;1.30;;;21.10;99.90;;;;;;5007375;28;20456;-76
2021/09/11 06:26:30;;;;;;;2.17;1.97;;;21.10;9.00;;;;;;5004126;28;20523;-75
2021/09/11 06:28:58;;;;;;;1.40;1.30;;;21.00;99.90;;;;;;5004509;28;21029;-78
2021/09/11 06:31:26;;;;;;;2.00;1.83;;;21.10;99.90;;;;;;4998812;28;20533;-77
2021/09/11 06:33:54;;;;;;;1.70;1.50;;;21.10;99.90;;;;;;5006078;28;20870;-76
2021/09/11 06:36:24;;;;;;;2.10;1.90;;;21.10;91.20;;;;;;4999017;28;20488;-77
2021/09/11 06:38:52;;;;;;;1.70;1.60;;;21.00;99.90;;;;;;5005459;28;20508;-77
2021/09/11 06:41:23;;;;;;;2.10;1.90;;;21.10;99.90;;;;;;4993060;28;20483;-77
2021/09/11 06:43:51;;;;;;;2.20;2.00;;;21.20;1.00;;;;;;5005814;28;20478;-75
2021/09/11 06:46:19;;;;;;;2.20;1.97;;;21.20;1.00;;;;;;4995854;28;20493;-75
2021/09/11 06:48:48;;;;;;;3.30;1.90;;;21.30;1.00;;;;;;5006363;28;20469;-72
2021/09/11 06:51:16;;;;;;;2.20;2.10;;;21.20;1.00;;;;;;5006454;28;20507;-76
2021/09/11 06:53:45;;;;;;;2.47;2.30;;;21.10;20.20;;;;;;5006715;28;20481;-76
2021/09/11 06:56:13;;;;;;;5.40;1.90;;;21.10;43.70;;;;;;5005947;28;20963;-77
2021/09/11 06:58:41;;;;;;;2.97;2.77;;;21.20;96.80;;;;;;5004575;28;20445;-76
2021/09/11 07:01:09;;;;;;;2.87;2.67;;;21.40;1.00;;;;;;5004001;28;20497;-77
2021/09/11 07:03:38;;;;;;;2.47;2.10;;;21.40;1.00;;;;;;5007969;28;20537;-76
2021/09/11 07:06:08;;;;;;;2.70;2.37;;;21.50;1.00;;;;;;5007754;28;20473;-78
2021/09/11 07:08:36;;;;;;;3.07;2.87;;;21.50;1.00;;;;;;4991525;28;20520;-76
2021/09/11 07:11:11;;;;;;;2.30;2.10;;;21.50;1.00;;;;;;5005372;28;20511;-76
2021/09/11 07:13:39;;;;;;;1.93;1.83;;;21.50;1.00;;;;;;5005839;28;21013;-77
2021/09/11 07:16:08;;;;;;;2.80;2.60;;;21.60;1.00;;;;;;5001925;28;20574;-76
2021/09/11 07:18:36;;;;;;;5.53;2.47;;;21.50;99.90;;;;;;5006787;28;20461;-77
2021/09/11 07:21:04;;;;;;;2.70;2.50;;;21.60;1.00;;;;;;5007417;28;20846;-77
2021/09/11 07:23:34;;;;;;;4.40;3.63;;;21.60;99.90;;;;;;5009984;28;20511;-73
2021/09/11 07:26:03;;;;;;;3.10;2.90;;;21.60;1.00;;;;;;5011106;28;20449;-76
2021/09/11 07:28:32;;;;;;;2.60;2.40;;;21.70;1.00;;;;;;5009961;28;20882;-81
2021/09/11 07:31:00;;;;;;;2.80;2.53;;;21.80;99.90;;;;;;5009342;28;20495;-72
2021/09/11 07:33:29;;;;;;;2.43;2.30;;;21.90;99.90;;;;;;5011311;28;20473;-78
2021/09/11 07:35:57;;;;;;;2.80;2.50;;;21.90;99.90;;;;;;5014896;28;20925;-81
2021/09/11 07:38:25;;;;;;;2.20;2.00;;;22.00;99.90;;;;;;5010442;28;21023;-78
2021/09/11 07:40:53;;;;;;;2.93;2.60;;;22.00;99.90;;;;;;5008830;28;20465;-78
2021/09/11 07:43:21;;;;;;;2.30;2.10;;;22.00;99.90;;;;;;5013055;28;20482;-75
2021/09/11 07:45:51;;;;;;;3.03;2.83;;;22.00;99.90;;;;;;5009784;28;20456;-77
2021/09/11 07:48:19;;;;;;;2.97;2.77;;;22.00;99.90;;;;;;5011655;28;20468;-77
2021/09/11 07:50:47;;;;;;;3.03;2.50;;;22.00;99.90;;;;;;5009802;28;20519;-78
2021/09/11 07:53:15;;;;;;;2.80;2.60;;;22.10;40.40;;;;;;5011996;28;20472;-78
2021/09/11 07:55:44;;;;;;;3.07;2.63;;;22.20;99.90;;;;;;5011249;28;20945;-79
2021/09/11 07:58:12;;;;;;;2.80;2.50;;;22.20;53.30;;;;;;5013463;28;20464;-78
2021/09/11 08:00:40;;;;;;;3.40;2.87;;;22.30;43.30;;;;;;5010517;28;20506;-77
2021/09/11 08:03:09;;;;;;;2.70;2.07;;;22.40;1.00;;;;;;5008585;28;21054;-79
2021/09/11 08:05:39;;;;;;;4.33;3.27;;;22.50;1.00;;;;;;5010375;28;21032;-79
2021/09/11 08:08:07;;;;;;;2.50;2.30;;;22.50;1.00;;;;;;5012211;28;20468;-79
2021/09/11 08:10:35;;;;;;;2.87;2.43;;;22.50;1.00;;;;;;5010588;28;20863;-76
2021/09/11 08:13:03;;;;;;;3.70;2.93;;;22.60;1.40;;;;;;5012930;28;20473;-78
2021/09/11 08:15:31;;;;;;;2.53;2.33;;;22.60;1.00;;;;;;5013372;28;20433;-76
2021/09/11 08:18:01;;;;;;;2.40;2.20;;;22.60;1.00;;;;;;5009944;28;21055;-79
2021/09/11 08:20:32;;;;;;;2.73;2.47;;;22.70;1.00;;;;;;5002130;28;20469;-79
2021/09/11 08:23:02;;;;;;;3.90;3.00;;;22.70;1.00;;;;;;5007937;28;20497;-79
2021/09/11 08:25:30;;;;;;;2.30;2.20;;;22.70;1.00;;;;;;5005060;28;20460;-75
2021/09/11 08:27:59;;;;;;;2.60;2.40;;;22.70;1.00;;;;;;5004952;28;20878;-76
2021/09/11 08:30:27;;;;;;;3.20;2.60;;;22.80;1.00;;;;;;5003937;28;20461;-77
2021/09/11 08:32:55;;;;;;;3.40;2.77;;;22.70;1.00;;;;;;5001865;28;20470;-78
2021/09/11 08:35:23;;;;;;;2.00;1.80;;;22.80;1.00;;;;;;5009223;28;20876;-77
2021/09/11 08:37:53;;;;;;;1.77;1.67;;;22.80;1.00;;;;;;5008132;28;20961;-76
2021/09/11 08:40:21;;;;;;;2.93;2.27;;;22.80;1.00;;;;;;5006016;28;20468;-72
2021/09/11 08:42:49;;;;;;;1.90;1.80;;;22.90;1.00;;;;;;5005741;28;20481;-77
2021/09/11 08:45:18;;;;;;;2.27;2.07;;;22.90;1.00;;;;;;5006081;28;20465;-75
2021/09/11 08:47:47;;;;;;;2.10;1.90;;;23.00;1.00;;;;;;5006781;28;20460;-76
2021/09/11 08:50:17;;;;;;;3.50;2.20;;;23.10;1.00;;;;;;4994037;28;20736;-76
2021/09/11 08:52:46;;;;;;;1.97;1.40;;;23.20;1.00;;;;;;5005845;28;20472;-76
2021/09/11 08:55:18;;;;;;;1.70;1.60;;;23.30;1.00;;;;;;5007300;28;20453;-74
2021/09/11 08:57:58;;;;;;;2.17;1.90;;;23.30;1.00;;;;;;5003803;28;20691;-76
2021/09/11 09:00:38;;;;;;;2.70;1.97;;;23.20;1.00;;;;;;5000892;28;20453;-79
2021/09/11 09:03:39;;;;;;;1.47;1.37;;;23.20;1.00;;;;;;4996588;28;20481;-73
2021/09/11 09:06:30;;;;;;;1.67;1.40;;;23.30;99.90;;;;;;5003314;28;20465;-78
2021/09/11 09:09:06;;;;;;;1.40;1.30;;;23.30;99.90;;;;;;5002030;28;20450;-77
2021/09/11 09:11:36;;;;;;;3.13;1.47;;;23.40;99.90;;;;;;5004983;28;20505;-78
2021/09/11 09:14:06;;;;;;;1.93;1.20;;;23.30;99.90;;;;;;5008043;28;20449;-74
2021/09/11 09:16:37;;;;;;;1.67;1.57;;;23.30;99.90;;;;;;5006718;28;20877;-76
2021/09/11 09:19:13;;;;;;;1.40;1.30;;;23.30;99.90;;;;;;5000614;28;20836;-76
2021/09/11 09:21:42;;;;;;;2.50;2.30;;;23.30;99.90;;;;;;5005246;28;20468;-78
2021/09/11 09:24:13;;;;;;;1.60;1.50;;;23.30;99.90;;;;;;5006694;28;20485;-77
2021/09/11 09:27:03;;;;;;;1.50;1.40;;;23.30;99.90;;;;;;5004745;28;20449;-79
2021/09/11 09:29:35;;;;;;;1.40;1.30;;;23.40;99.90;;;;;;5006299;28;20468;-77
2021/09/11 09:32:04;;;;;;;1.73;1.47;;;23.40;99.90;;;;;;5003649;28;20485;-77
2021/09/11 09:34:36;;;;;;;1.60;1.50;;;23.50;99.90;;;;;;5005332;28;20548;-76
2021/09/11 09:37:07;;;;;;;2.10;1.80;;;23.60;99.90;;;;;;5005870;28;20463;-76
2021/09/11 09:39:39;;;;;;;1.60;1.50;;;23.60;99.90;;;;;;5002304;28;20461;-78
2021/09/11 09:42:11;;;;;;;2.50;1.60;;;23.70;99.90;;;;;;4998120;28;20681;-76
2021/09/11 09:44:45;;;;;;;1.80;1.67;;;23.60;99.90;;;;;;5006772;28;21185;-78
2021/09/11 09:47:14;;;;;;;2.80;2.60;;;23.60;99.90;;;;;;5005885;28;20461;-76
2021/09/11 09:49:42;;;;;;;3.07;1.57;;;23.60;99.90;;;;;;5006697;28;20462;-75
2021/09/11 09:52:11;;;;;;;1.63;1.53;;;23.60;99.90;;;;;;5002895;28;20675;-76
2021/09/11 09:54:39;;;;;;;1.60;1.50;;;23.70;99.90;;;;;;5001353;28;20508;-78
2021/09/11 09:57:10;;;;;;;2.67;1.77;;;23.80;99.90;;;;;;5004621;28;20465;-78
2021/09/11 09:59:39;;;;;;;2.40;1.47;;;23.90;99.90;;;;;;5006700;28;20541;-77
2021/09/11 10:02:07;;;;;;;1.53;1.43;;;23.90;99.90;;;;;;5000711;28;20510;-76
2021/09/11 10:04:36;;;;;;;1.60;1.50;;;23.90;99.90;;;;;;5007092;28;20523;-78
2021/09/11 10:07:07;;;;;;;1.50;1.40;;;23.90;99.90;;;;;;5006530;28;20543;-77
2021/09/11 10:09:37;;;;;;;2.20;1.77;;;23.90;99.90;;;;;;5005376;28;20452;-77
2021/09/11 10:12:30;;;;;;;2.37;1.30;;;23.80;99.90;;;;;;5005868;28;20489;-76
2021/09/11 10:15:23;;;;;;;1.80;1.70;;;23.70;99.90;;;;;;5007166;28;20453;-78
2021/09/11 10:17:51;;;;;;;2.10;1.90;;;23.60;99.90;;;;;;5005152;28;20457;-75
2021/09/11 10:20:19;;;;;;;2.30;1.87;;;23.60;99.90;;;;;;5000734;28;20543;-75
2021/09/11 10:23:04;;;;;;;1.83;1.60;;;23.60;99.90;;;;;;5005272;28;20544;-75
2021/09/11 10:25:40;;;;;;;1.77;1.63;;;23.70;99.90;;;;;;5004414;28;20935;-77
2021/09/11 10:28:14;;;;;;;2.00;1.60;;;23.70;99.90;;;;;;5004369;28;20544;-78
2021/09/11 10:31:05;;;;;;;2.20;1.63;;;23.70;99.90;;;;;;5003824;28;21039;-77
2021/09/11 10:33:49;;;;;;;1.80;1.70;;;23.60;99.90;;;;;;5005142;28;20872;-76
2021/09/11 10:36:22;;;;;;;2.07;1.77;;;23.60;99.90;;;;;;5006361;28;20492;-77
2021/09/11 10:38:52;;;;;;;2.10;1.90;;;23.50;99.90;;;;;;5005411;28;21002;-76
2021/09/11 10:41:20;;;;;;;3.63;1.80;;;23.50;99.90;;;;;;5000130;28;20461;-76
2021/09/11 10:44:06;;;;;;;1.50;1.40;;;23.60;99.90;;;;;;5006806;28;20548;-75
2021/09/11 10:46:47;;;;;;;1.40;1.30;;;23.60;99.90;;;;;;5002983;28;20477;-75
2021/09/11 10:49:31;;;;;;;1.60;1.50;;;23.60;99.90;;;;;;4998879;28;20497;-78
2021/09/11 10:52:04;;;;;;;1.77;1.30;;;23.60;99.90;;;;;;5001742;28;20497;-73
2021/09/11 10:54:33;;;;;;;2.10;1.20;;;23.60;99.90;;;;;;5007020;28;20503;-73
2021/09/11 10:57:13;;;;;;;1.03;1.00;;;23.60;99.90;;;;;;5009224;28;20854;-75
2021/09/11 10:59:44;;;;;;;2.03;1.20;;;23.60;99.90;;;;;;5008022;28;20898;-75
2021/09/11 11:02:24;;;;;;;1.67;1.20;;;23.50;1.00;;;;;;5002652;28;20477;-75
2021/09/11 11:04:58;;;;;;;1.37;1.27;;;23.50;1.00;;;;;;5006431;28;20516;-76
2021/09/11 11:07:28;;;;;;;1.50;1.40;;;23.40;1.00;;;;;;5006258;28;20507;-77
2021/09/11 11:09:57;;;;;;;4.87;1.50;;;23.40;99.90;;;;;;5003145;28;20465;-79
2021/09/11 11:12:28;;;;;;;2.07;1.50;;;23.30;99.90;;;;;;5010092;28;21004;-76
2021/09/11 11:15:00;;;;;;;1.97;1.30;;;23.20;99.90;;;;;;5006886;28;20461;-77
2021/09/11 11:17:29;;;;;;;2.00;1.10;;;23.10;99.90;;;;;;5008474;28;20457;-76
2021/09/11 11:19:58;;;;;;;1.40;1.13;;;23.10;1.00;;;;;;5006859;28;21014;-77
2021/09/11 11:22:28;;;;;;;1.03;1.00;;;23.10;1.00;;;;;;5007292;28;20901;-77
2021/09/11 11:24:57;;;;;;;2.73;1.40;;;23.20;1.00;;;;;;5007209;28;21231;-74
2021/09/11 11:27:27;;;;;;;1.93;1.20;;;23.10;1.00;;;;;;5003635;28;20452;-77
2021/09/11 11:29:58;;;;;;;2.00;1.67;;;23.10;1.00;;;;;;5001328;28;20533;-77
2021/09/11 11:32:27;;;;;;;1.70;1.60;;;23.00;1.00;;;;;;5010503;28;21009;-78
2021/09/11 11:35:00;;;;;;;2.10;1.90;;;23.10;99.90;;;;;;5007387;28;20453;-77
2021/09/11 11:37:30;;;;;;;5.33;2.60;;;23.00;99.90;;;;;;5007378;28;20434;-77
2021/09/11 11:40:00;;;;;;;3.50;2.33;;;23.00;99.90;;;;;;5008757;28;20449;-77
2021/09/11 11:42:32;;;;;;;2.53;1.73;;;23.00;99.90;;;;;;5005176;28;20476;-76
2021/09/11 11:45:04;;;;;;;3.50;1.70;;;23.00;99.90;;;;;;5010193;28;20475;-77
2021/09/11 11:47:40;;;;;;;2.33;2.13;;;23.00;99.90;;;;;;5002496;28;20472;-78
2021/09/11 11:50:10;;;;;;;2.27;2.07;;;23.00;1.00;;;;;;5007997;28;20453;-78
2021/09/11 11:52:38;;;;;;;2.67;2.47;;;23.00;99.90;;;;;;5007731;28;20483;-77
2021/09/11 11:55:11;;;;;;;1.70;1.60;;;23.10;1.00;;;;;;5009802;28;20793;-77
2021/09/11 11:57:39;;;;;;;2.60;1.90;;;23.00;99.90;;;;;;5007081;28;20445;-77
2021/09/11 12:00:11;;;;;;;2.53;2.33;;;23.00;99.90;;;;;;5005319;28;20446;-75
2021/09/11 12:02:41;;;;;;;2.63;1.40;;;23.00;1.00;;;;;;5002236;28;20468;-77
2021/09/11 12:05:24;;;;;;;3.10;1.60;;;23.00;1.00;;;;;;5004260;28;21147;-77
2021/09/11 12:07:54;;;;;;;1.67;1.57;;;22.90;1.00;;;;;;5005221;28;20516;-77
2021/09/11 12:10:23;;;;;;;2.27;2.07;;;23.00;1.00;;;;;;5005481;28;21028;-75
2021/09/11 12:12:53;;;;;;;1.90;1.80;;;23.00;65.10;;;;;;5005183;28;21264;-74
2021/09/11 12:15:25;;;;;;;3.20;2.50;;;23.00;99.90;;;;;;5006351;28;21206;-76
2021/09/11 12:17:59;;;;;;;2.60;2.40;;;23.10;30.50;;;;;;5005014;28;20463;-78
2021/09/11 12:20:44;;;;;;;2.10;1.57;;;23.10;1.00;;;;;;5006159;28;20511;-78
2021/09/11 12:23:15;;;;;;;3.23;2.20;;;23.10;99.90;;;;;;5007018;28;20465;-78
2021/09/11 12:25:56;;;;;;;2.80;2.30;;;23.20;1.00;;;;;;5004498;28;21005;-78
2021/09/11 12:28:41;;;;;;;2.00;1.80;;;23.10;99.90;;;;;;5004362;28;20528;-80
2021/09/11 12:31:21;;;;;;;3.53;2.73;;;23.20;1.00;;;;;;5005712;28;20493;-78
2021/09/11 12:33:51;;;;;;;2.43;2.23;;;23.30;1.00;;;;;;5005214;28;20449;-78
2021/09/11 12:36:34;;;;;;;2.70;2.23;;;23.40;99.90;;;;;;5005961;28;20462;-79
2021/09/11 12:39:06;;;;;;;2.27;1.90;;;23.50;1.00;;;;;;5003538;28;20544;-78
2021/09/11 12:41:34;;;;;;;2.03;1.83;;;23.50;1.00;;;;;;5004352;28;20445;-79
2021/09/11 12:44:03;;;;;;;1.97;1.50;;;23.60;99.90;;;;;;5006578;28;20602;-76
2021/09/11 12:46:35;;;;;;;2.17;1.40;;;23.70;99.90;;;;;;5003824;28;20863;-76
2021/09/11 12:49:06;;;;;;;2.93;2.00;;;23.60;1.00;;;;;;5005511;28;20453;-77
2021/09/11 12:51:35;;;;;;;1.80;1.60;;;23.70;99.90;;;;;;5003845;28;21125;-76
2021/09/11 12:54:03;;;;;;;1.60;1.37;;;23.80;99.90;;;;;;5004877;28;20452;-77
2021/09/11 12:56:32;;;;;;;1.70;1.60;;;23.70;82.90;;;;;;5005384;28;20465;-78
2021/09/11 12:59:01;;;;;;;1.57;1.47;;;23.70;65.20;;;;;;5001778;28;20453;-78
2021/09/11 13:01:33;;;;;;;2.23;1.33;;;23.70;10.10;;;;;;5003631;28;20488;-78
2021/09/11 13:04:04;;;;;;;1.73;1.63;;;23.80;21.80;;;;;;5000019;28;20873;-77